sensor_id;sensor_type;location;lat;lon;timestamp;temperature;humidity
51091;DHT22;37136;43.614;3.908;2022-08-01T00:01:24;26.50;99.90
51091;DHT22;37136;43.614;3.908;2022-08-01T00:03:50;26.50;99.90
51091;DHT22;37136;43.614;3.908;2022-08-01T00:06:16;26.40;99.90
51091;DHT22;37136;43.614;3.908;2022-08-01T00:08:42;26.40;99.90
51091;DHT22;37136;43.614;3.908;2022-08-01T00:11:07;26.40;99.90
51091;DHT22;37136;43.614;3.908;2022-08-01T00:13:35;26.40;99.90
51091;DHT22;37136;43.614;3.908;2022-08-01T00:16:00;26.40;99.90
51091;DHT22;37136;43.614;3.908;2022-08-01T00:18:26;26.30;99.90
51091;DHT22;37136;43.614;3.908;2022-08-01T00:20:52;26.30;99.90
51091;DHT22;37136;43.614;3.908;2022-08-01T00:23:18;26.30;99.90
51091;DHT22;37136;43.614;3.908;2022-08-01T00:25:43;26.30;99.90
51091;DHT22;37136;43.614;3.908;2022-08-01T00:28:09;26.40;99.90
51091;DHT22;37136;43.614;3.908;2022-08-01T00:30:35;26.30;99.90
51091;DHT22;37136;43.614;3.908;2022-08-01T00:33:02;26.50;99.90
51091;DHT22;37136;43.614;3.908;2022-08-01T00:35:28;26.60;99.90
51091;DHT22;37136;43.614;3.908;2022-08-01T00:37:54;26.70;99.90
51091;DHT22;37136;43.614;3.908;2022-08-01T00:40:20;26.50;99.90
51091;DHT22;37136;43.614;3.908;2022-08-01T00:42:46;26.50;99.90
51091;DHT22;37136;43.614;3.908;2022-08-01T00:45:12;26.40;99.90
51091;DHT22;37136;43.614;3.908;2022-08-01T00:47:37;26.30;99.90
51091;DHT22;37136;43.614;3.908;2022-08-01T00:50:04;26.10;99.90
51091;DHT22;37136;43.614;3.908;2022-08-01T00:52:31;26.20;99.90
51091;DHT22;37136;43.614;3.908;2022-08-01T00:54:57;26.10;99.90
51091;DHT22;37136;43.614;3.908;2022-08-01T00:57:23;26.10;99.90
51091;DHT22;37136;43.614;3.908;2022-08-01T00:59:49;26.10;99.90
51091;DHT22;37136;43.614;3.908;2022-08-01T01:02:15;26.10;99.90
51091;DHT22;37136;43.614;3.908;2022-08-01T01:04:42;26.10;99.90
51091;DHT22;37136;43.614;3.908;2022-08-01T01:07:20;26.10;99.90
51091;DHT22;37136;43.614;3.908;2022-08-01T01:09:58;26.10;99.90
51091;DHT22;37136;43.614;3.908;2022-08-01T01:12:38;26.20;99.90
51091;DHT22;37136;43.614;3.908;2022-08-01T01:20:44;26.30;99.90
51091;DHT22;37136;43.614;3.908;2022-08-01T01:23:34;26.30;99.90
51091;DHT22;37136;43.614;3.908;2022-08-01T01:34:30;26.10;99.90
51091;DHT22;37136;43.614;3.908;2022-08-01T01:36:58;26.10;99.90
51091;DHT22;37136;43.614;3.908;2022-08-01T01:39:27;26.10;99.90
51091;DHT22;37136;43.614;3.908;2022-08-01T01:41:55;26.10;99.90
51091;DHT22;37136;43.614;3.908;2022-08-01T01:44:22;26.10;99.90
51091;DHT22;37136;43.614;3.908;2022-08-01T01:46:50;26.10;99.90
51091;DHT22;37136;43.614;3.908;2022-08-01T01:49:21;26.00;99.90
51091;DHT22;37136;43.614;3.908;2022-08-01T01:51:51;26.00;99.90
51091;DHT22;37136;43.614;3.908;2022-08-01T01:54:17;26.00;99.90
51091;DHT22;37136;43.614;3.908;2022-08-01T01:56:44;25.90;99.90
51091;DHT22;37136;43.614;3.908;2022-08-01T01:59:19;26.00;99.90
51091;DHT22;37136;43.614;3.908;2022-08-01T02:01:48;26.10;99.90
51091;DHT22;37136;43.614;3.908;2022-08-01T02:04:15;26.00;99.90
51091;DHT22;37136;43.614;3.908;2022-08-01T02:06:43;25.90;99.90
51091;DHT22;37136;43.614;3.908;2022-08-01T02:09:09;25.90;99.90
51091;DHT22;37136;43.614;3.908;2022-08-01T02:11:37;25.80;99.90
51091;DHT22;37136;43.614;3.908;2022-08-01T02:14:03;25.70;99.90
51091;DHT22;37136;43.614;3.908;2022-08-01T02:16:33;25.80;99.90
51091;DHT22;37136;43.614;3.908;2022-08-01T02:19:00;25.70;99.90
51091;DHT22;37136;43.614;3.908;2022-08-01T02:21:29;25.70;99.90
51091;DHT22;37136;43.614;3.908;2022-08-01T02:24:01;25.50;99.90
51091;DHT22;37136;43.614;3.908;2022-08-01T02:26:28;25.50;99.90
51091;DHT22;37136;43.614;3.908;2022-08-01T02:29:02;25.40;99.90
51091;DHT22;37136;43.614;3.908;2022-08-01T02:31:34;25.40;99.90
51091;DHT22;37136;43.614;3.908;2022-08-01T02:34:04;25.60;99.90
51091;DHT22;37136;43.614;3.908;2022-08-01T02:36:33;25.50;99.90
51091;DHT22;37136;43.614;3.908;2022-08-01T02:39:06;25.40;99.90
51091;DHT22;37136;43.614;3.908;2022-08-01T02:41:38;25.30;99.90
51091;DHT22;37136;43.614;3.908;2022-08-01T02:44:07;25.30;99.90
51091;DHT22;37136;43.614;3.908;2022-08-01T02:46:39;25.40;99.90
51091;DHT22;37136;43.614;3.908;2022-08-01T02:49:07;25.40;99.90
51091;DHT22;37136;43.614;3.908;2022-08-01T02:51:35;25.30;99.90
51091;DHT22;37136;43.614;3.908;2022-08-01T02:54:03;25.40;99.90
51091;DHT22;37136;43.614;3.908;2022-08-01T02:56:30;25.50;99.90
51091;DHT22;37136;43.614;3.908;2022-08-01T02:59:08;25.50;99.90
51091;DHT22;37136;43.614;3.908;2022-08-01T03:01:35;25.40;99.90
51091;DHT22;37136;43.614;3.908;2022-08-01T03:04:05;25.20;99.90
51091;DHT22;37136;43.614;3.908;2022-08-01T03:06:33;24.90;99.90
51091;DHT22;37136;43.614;3.908;2022-08-01T03:09:02;24.90;99.90
51091;DHT22;37136;43.614;3.908;2022-08-01T03:11:29;25.00;99.90
51091;DHT22;37136;43.614;3.908;2022-08-01T03:13:59;25.10;99.90
51091;DHT22;37136;43.614;3.908;2022-08-01T03:16:26;25.10;99.90
51091;DHT22;37136;43.614;3.908;2022-08-01T03:18:55;25.10;99.90
51091;DHT22;37136;43.614;3.908;2022-08-01T03:21:23;25.10;99.90
51091;DHT22;37136;43.614;3.908;2022-08-01T03:23:50;25.10;99.90
51091;DHT22;37136;43.614;3.908;2022-08-01T03:26:26;25.00;99.90
51091;DHT22;37136;43.614;3.908;2022-08-01T03:28:55;25.10;99.90
51091;DHT22;37136;43.614;3.908;2022-08-01T03:31:22;25.10;99.90
51091;DHT22;37136;43.614;3.908;2022-08-01T03:33:49;25.00;99.90
51091;DHT22;37136;43.614;3.908;2022-08-01T03:36:15;25.00;99.90
51091;DHT22;37136;43.614;3.908;2022-08-01T03:38:43;25.00;99.90
51091;DHT22;37136;43.614;3.908;2022-08-01T03:41:14;24.90;99.90
51091;DHT22;37136;43.614;3.908;2022-08-01T03:43:46;24.90;99.90
51091;DHT22;37136;43.614;3.908;2022-08-01T03:46:20;24.90;99.90
51091;DHT22;37136;43.614;3.908;2022-08-01T03:48:48;24.90;99.90
51091;DHT22;37136;43.614;3.908;2022-08-01T03:51:16;24.90;99.90
51091;DHT22;37136;43.614;3.908;2022-08-01T03:53:42;25.10;99.90
51091;DHT22;37136;43.614;3.908;2022-08-01T03:56:10;24.90;99.90
51091;DHT22;37136;43.614;3.908;2022-08-01T03:58:41;24.80;99.90
51091;DHT22;37136;43.614;3.908;2022-08-01T04:01:08;24.90;99.90
51091;DHT22;37136;43.614;3.908;2022-08-01T04:03:37;25.10;99.90
51091;DHT22;37136;43.614;3.908;2022-08-01T04:06:04;25.20;99.90
51091;DHT22;37136;43.614;3.908;2022-08-01T04:08:43;25.10;99.90
51091;DHT22;37136;43.614;3.908;2022-08-01T04:11:23;25.00;99.90
51091;DHT22;37136;43.614;3.908;2022-08-01T04:13:51;25.00;99.90
51091;DHT22;37136;43.614;3.908;2022-08-01T04:16:18;24.80;99.90
51091;DHT22;37136;43.614;3.908;2022-08-01T04:18:44;24.90;99.90
51091;DHT22;37136;43.614;3.908;2022-08-01T04:21:10;24.70;99.90
51091;DHT22;37136;43.614;3.908;2022-08-01T04:23:38;24.80;99.90
51091;DHT22;37136;43.614;3.908;2022-08-01T04:26:05;24.80;99.90
51091;DHT22;37136;43.614;3.908;2022-08-01T04:28:34;24.60;99.90
51091;DHT22;37136;43.614;3.908;2022-08-01T04:31:02;24.60;99.90
51091;DHT22;37136;43.614;3.908;2022-08-01T04:33:31;24.60;99.90
51091;DHT22;37136;43.614;3.908;2022-08-01T04:35:59;24.60;99.90
51091;DHT22;37136;43.614;3.908;2022-08-01T04:38:27;24.70;99.90
51091;DHT22;37136;43.614;3.908;2022-08-01T04:40:54;24.80;99.90
51091;DHT22;37136;43.614;3.908;2022-08-01T04:43:20;25.10;99.90
51091;DHT22;37136;43.614;3.908;2022-08-01T04:45:47;24.90;99.90
51091;DHT22;37136;43.614;3.908;2022-08-01T04:48:15;24.80;99.90
51091;DHT22;37136;43.614;3.908;2022-08-01T04:50:42;24.80;99.90
51091;DHT22;37136;43.614;3.908;2022-08-01T04:53:18;24.80;99.90
51091;DHT22;37136;43.614;3.908;2022-08-01T04:55:44;24.90;99.90
51091;DHT22;37136;43.614;3.908;2022-08-01T04:58:11;24.90;99.90
51091;DHT22;37136;43.614;3.908;2022-08-01T05:00:38;25.20;99.90
51091;DHT22;37136;43.614;3.908;2022-08-01T05:03:03;25.30;99.90
51091;DHT22;37136;43.614;3.908;2022-08-01T05:05:29;25.40;99.90
51091;DHT22;37136;43.614;3.908;2022-08-01T05:07:56;25.40;99.90
51091;DHT22;37136;43.614;3.908;2022-08-01T05:10:22;25.40;99.90
51091;DHT22;37136;43.614;3.908;2022-08-01T05:12:47;25.30;99.90
51091;DHT22;37136;43.614;3.908;2022-08-01T05:15:13;25.30;99.90
51091;DHT22;37136;43.614;3.908;2022-08-01T05:17:39;25.20;99.90
51091;DHT22;37136;43.614;3.908;2022-08-01T05:20:05;25.30;99.90
51091;DHT22;37136;43.614;3.908;2022-08-01T05:22:34;25.50;99.90
51091;DHT22;37136;43.614;3.908;2022-08-01T05:25:00;25.50;99.90
51091;DHT22;37136;43.614;3.908;2022-08-01T05:27:26;25.50;99.90
51091;DHT22;37136;43.614;3.908;2022-08-01T05:29:52;25.50;99.90
51091;DHT22;37136;43.614;3.908;2022-08-01T05:32:18;25.50;99.90
51091;DHT22;37136;43.614;3.908;2022-08-01T05:34:44;25.60;99.90
51091;DHT22;37136;43.614;3.908;2022-08-01T05:37:09;25.70;99.90
51091;DHT22;37136;43.614;3.908;2022-08-01T05:39:36;25.80;99.90
51091;DHT22;37136;43.614;3.908;2022-08-01T05:42:02;25.90;99.90
51091;DHT22;37136;43.614;3.908;2022-08-01T05:44:27;25.80;99.90
51091;DHT22;37136;43.614;3.908;2022-08-01T05:46:53;25.80;99.90
51091;DHT22;37136;43.614;3.908;2022-08-01T05:49:19;26.10;99.90
51091;DHT22;37136;43.614;3.908;2022-08-01T05:51:45;26.30;99.90
51091;DHT22;37136;43.614;3.908;2022-08-01T05:54:11;26.30;99.90
51091;DHT22;37136;43.614;3.908;2022-08-01T05:56:36;26.30;99.90
51091;DHT22;37136;43.614;3.908;2022-08-01T05:59:02;26.50;99.90
51091;DHT22;37136;43.614;3.908;2022-08-01T06:01:28;26.70;99.90
51091;DHT22;37136;43.614;3.908;2022-08-01T06:03:54;26.60;99.90
51091;DHT22;37136;43.614;3.908;2022-08-01T06:06:22;26.70;99.90
51091;DHT22;37136;43.614;3.908;2022-08-01T06:08:48;26.80;99.90
51091;DHT22;37136;43.614;3.908;2022-08-01T06:11:14;26.80;99.90
51091;DHT22;37136;43.614;3.908;2022-08-01T06:13:40;26.90;99.90
51091;DHT22;37136;43.614;3.908;2022-08-01T06:16:05;27.00;99.90
51091;DHT22;37136;43.614;3.908;2022-08-01T06:18:31;27.10;99.90
51091;DHT22;37136;43.614;3.908;2022-08-01T06:20:57;27.30;99.90
51091;DHT22;37136;43.614;3.908;2022-08-01T06:23:22;27.40;99.90
51091;DHT22;37136;43.614;3.908;2022-08-01T06:25:52;27.50;99.90
51091;DHT22;37136;43.614;3.908;2022-08-01T06:28:18;27.60;99.90
51091;DHT22;37136;43.614;3.908;2022-08-01T06:30:44;27.70;99.90
51091;DHT22;37136;43.614;3.908;2022-08-01T06:33:10;27.80;99.90
51091;DHT22;37136;43.614;3.908;2022-08-01T06:35:35;28.00;99.90
51091;DHT22;37136;43.614;3.908;2022-08-01T06:38:02;28.20;99.90
51091;DHT22;37136;43.614;3.908;2022-08-01T06:40:28;28.30;99.90
51091;DHT22;37136;43.614;3.908;2022-08-01T06:42:54;28.40;99.90
51091;DHT22;37136;43.614;3.908;2022-08-01T06:45:20;28.50;99.90
51091;DHT22;37136;43.614;3.908;2022-08-01T06:47:48;28.60;99.90
51091;DHT22;37136;43.614;3.908;2022-08-01T06:50:14;28.90;99.90
51091;DHT22;37136;43.614;3.908;2022-08-01T06:52:41;28.90;99.90
51091;DHT22;37136;43.614;3.908;2022-08-01T06:55:07;29.20;99.90
51091;DHT22;37136;43.614;3.908;2022-08-01T06:57:33;29.30;99.90
51091;DHT22;37136;43.614;3.908;2022-08-01T07:00:04;29.50;99.90
51091;DHT22;37136;43.614;3.908;2022-08-01T07:02:33;29.60;99.90
51091;DHT22;37136;43.614;3.908;2022-08-01T07:04:59;29.70;99.90
51091;DHT22;37136;43.614;3.908;2022-08-01T07:07:26;30.00;99.90
51091;DHT22;37136;43.614;3.908;2022-08-01T07:09:52;30.10;99.90
51091;DHT22;37136;43.614;3.908;2022-08-01T07:12:18;30.20;99.90
51091;DHT22;37136;43.614;3.908;2022-08-01T07:14:44;30.30;99.90
51091;DHT22;37136;43.614;3.908;2022-08-01T07:17:09;30.40;99.90
51091;DHT22;37136;43.614;3.908;2022-08-01T07:19:35;30.60;99.90
51091;DHT22;37136;43.614;3.908;2022-08-01T07:22:02;30.60;99.90
51091;DHT22;37136;43.614;3.908;2022-08-01T07:24:28;30.70;99.90
51091;DHT22;37136;43.614;3.908;2022-08-01T07:26:55;30.80;99.90
51091;DHT22;37136;43.614;3.908;2022-08-01T07:29:23;30.80;99.90
51091;DHT22;37136;43.614;3.908;2022-08-01T07:31:50;30.90;99.90
51091;DHT22;37136;43.614;3.908;2022-08-01T07:34:16;31.00;99.90
51091;DHT22;37136;43.614;3.908;2022-08-01T07:36:42;31.10;99.90
51091;DHT22;37136;43.614;3.908;2022-08-01T07:39:08;31.10;99.90
51091;DHT22;37136;43.614;3.908;2022-08-01T07:41:33;31.20;99.90
51091;DHT22;37136;43.614;3.908;2022-08-01T07:43:59;31.20;99.90
51091;DHT22;37136;43.614;3.908;2022-08-01T07:46:25;31.30;99.90
51091;DHT22;37136;43.614;3.908;2022-08-01T07:48:50;31.40;99.90
51091;DHT22;37136;43.614;3.908;2022-08-01T07:51:16;31.50;99.90
51091;DHT22;37136;43.614;3.908;2022-08-01T07:53:42;31.50;99.90
51091;DHT22;37136;43.614;3.908;2022-08-01T07:56:08;31.50;99.90
51091;DHT22;37136;43.614;3.908;2022-08-01T07:58:34;31.60;99.90
51091;DHT22;37136;43.614;3.908;2022-08-01T08:01:00;31.70;99.90
51091;DHT22;37136;43.614;3.908;2022-08-01T08:03:25;31.80;99.90
51091;DHT22;37136;43.614;3.908;2022-08-01T08:05:52;31.70;99.90
51091;DHT22;37136;43.614;3.908;2022-08-01T08:08:17;31.70;99.90
51091;DHT22;37136;43.614;3.908;2022-08-01T08:10:44;31.70;99.90
51091;DHT22;37136;43.614;3.908;2022-08-01T08:13:10;31.80;99.90
51091;DHT22;37136;43.614;3.908;2022-08-01T08:15:35;32.00;99.90
51091;DHT22;37136;43.614;3.908;2022-08-01T08:18:03;32.00;99.90
51091;DHT22;37136;43.614;3.908;2022-08-01T08:20:29;32.00;99.90
51091;DHT22;37136;43.614;3.908;2022-08-01T08:22:55;32.20;99.90
51091;DHT22;37136;43.614;3.908;2022-08-01T08:25:23;32.10;99.90
51091;DHT22;37136;43.614;3.908;2022-08-01T08:27:49;32.30;99.90
51091;DHT22;37136;43.614;3.908;2022-08-01T08:30:15;32.40;99.90
51091;DHT22;37136;43.614;3.908;2022-08-01T08:32:41;32.50;99.90
51091;DHT22;37136;43.614;3.908;2022-08-01T08:35:07;32.70;99.90
51091;DHT22;37136;43.614;3.908;2022-08-01T08:37:34;32.80;99.90
51091;DHT22;37136;43.614;3.908;2022-08-01T08:40:00;32.90;99.90
51091;DHT22;37136;43.614;3.908;2022-08-01T08:42:26;32.80;99.90
51091;DHT22;37136;43.614;3.908;2022-08-01T08:44:52;32.70;99.90
51091;DHT22;37136;43.614;3.908;2022-08-01T08:47:21;32.70;99.90
51091;DHT22;37136;43.614;3.908;2022-08-01T08:49:50;32.70;99.90
51091;DHT22;37136;43.614;3.908;2022-08-01T08:52:19;32.80;99.90
51091;DHT22;37136;43.614;3.908;2022-08-01T08:54:47;32.90;99.90
51091;DHT22;37136;43.614;3.908;2022-08-01T08:57:14;32.90;99.90
51091;DHT22;37136;43.614;3.908;2022-08-01T08:59:42;32.80;99.90
51091;DHT22;37136;43.614;3.908;2022-08-01T09:02:09;32.90;99.90
51091;DHT22;37136;43.614;3.908;2022-08-01T09:04:36;32.90;99.90
51091;DHT22;37136;43.614;3.908;2022-08-01T09:07:04;33.00;99.90
51091;DHT22;37136;43.614;3.908;2022-08-01T09:09:31;33.00;99.90
51091;DHT22;37136;43.614;3.908;2022-08-01T09:11:57;33.10;99.90
51091;DHT22;37136;43.614;3.908;2022-08-01T09:14:24;33.20;99.90
51091;DHT22;37136;43.614;3.908;2022-08-01T09:17:11;33.40;99.90
51091;DHT22;37136;43.614;3.908;2022-08-01T09:19:43;33.30;99.90
51091;DHT22;37136;43.614;3.908;2022-08-01T09:22:12;33.40;99.90
51091;DHT22;37136;43.614;3.908;2022-08-01T09:24:39;33.50;99.90
51091;DHT22;37136;43.614;3.908;2022-08-01T09:27:20;33.50;99.90
51091;DHT22;37136;43.614;3.908;2022-08-01T09:29:46;33.50;99.90
51091;DHT22;37136;43.614;3.908;2022-08-01T09:32:12;33.70;99.90
51091;DHT22;37136;43.614;3.908;2022-08-01T09:34:37;33.80;99.90
51091;DHT22;37136;43.614;3.908;2022-08-01T09:37:03;33.70;99.90
51091;DHT22;37136;43.614;3.908;2022-08-01T09:39:38;33.60;99.90
51091;DHT22;37136;43.614;3.908;2022-08-01T09:42:24;33.70;99.90
51091;DHT22;37136;43.614;3.908;2022-08-01T09:44:51;33.80;99.90
51091;DHT22;37136;43.614;3.908;2022-08-01T09:47:21;33.90;99.90
51091;DHT22;37136;43.614;3.908;2022-08-01T09:49:55;33.70;99.90
51091;DHT22;37136;43.614;3.908;2022-08-01T09:52:23;33.80;99.90
51091;DHT22;37136;43.614;3.908;2022-08-01T09:55:01;34.10;99.90
51091;DHT22;37136;43.614;3.908;2022-08-01T09:57:28;33.80;99.90
51091;DHT22;37136;43.614;3.908;2022-08-01T09:59:55;33.70;99.90
51091;DHT22;37136;43.614;3.908;2022-08-01T10:02:36;33.80;99.90
51091;DHT22;37136;43.614;3.908;2022-08-01T10:05:04;33.90;99.90
51091;DHT22;37136;43.614;3.908;2022-08-01T10:07:30;34.10;99.90
51091;DHT22;37136;43.614;3.908;2022-08-01T10:09:56;34.30;99.90
51091;DHT22;37136;43.614;3.908;2022-08-01T10:12:34;34.30;99.90
51091;DHT22;37136;43.614;3.908;2022-08-01T10:15:00;34.40;99.90
51091;DHT22;37136;43.614;3.908;2022-08-01T10:17:27;34.40;99.90
51091;DHT22;37136;43.614;3.908;2022-08-01T10:19:53;34.60;99.90
51091;DHT22;37136;43.614;3.908;2022-08-01T10:22:22;34.20;99.90
51091;DHT22;37136;43.614;3.908;2022-08-01T10:24:48;34.40;99.90
51091;DHT22;37136;43.614;3.908;2022-08-01T10:27:16;34.70;99.90
51091;DHT22;37136;43.614;3.908;2022-08-01T10:29:51;34.70;99.90
51091;DHT22;37136;43.614;3.908;2022-08-01T10:32:19;34.80;99.90
51091;DHT22;37136;43.614;3.908;2022-08-01T10:34:46;34.80;99.90
51091;DHT22;37136;43.614;3.908;2022-08-01T10:37:13;34.60;99.90
51091;DHT22;37136;43.614;3.908;2022-08-01T10:39:39;35.00;99.90
51091;DHT22;37136;43.614;3.908;2022-08-01T10:42:06;34.90;99.90
51091;DHT22;37136;43.614;3.908;2022-08-01T10:44:36;34.90;99.90
51091;DHT22;37136;43.614;3.908;2022-08-01T10:47:11;35.00;99.90
51091;DHT22;37136;43.614;3.908;2022-08-01T10:50:11;35.10;99.90
51091;DHT22;37136;43.614;3.908;2022-08-01T10:52:38;35.10;99.90
51091;DHT22;37136;43.614;3.908;2022-08-01T10:55:06;34.90;99.90
51091;DHT22;37136;43.614;3.908;2022-08-01T10:57:46;35.10;99.90
51091;DHT22;37136;43.614;3.908;2022-08-01T11:00:20;35.30;99.90
51091;DHT22;37136;43.614;3.908;2022-08-01T11:03:05;35.30;99.90
51091;DHT22;37136;43.614;3.908;2022-08-01T11:05:35;35.00;99.90
51091;DHT22;37136;43.614;3.908;2022-08-01T11:08:10;35.20;99.90
51091;DHT22;37136;43.614;3.908;2022-08-01T11:10:41;35.30;99.90
51091;DHT22;37136;43.614;3.908;2022-08-01T11:13:10;35.30;99.90
51091;DHT22;37136;43.614;3.908;2022-08-01T11:15:37;35.40;99.90
51091;DHT22;37136;43.614;3.908;2022-08-01T11:21:00;35.20;99.90
51091;DHT22;37136;43.614;3.908;2022-08-01T11:23:30;35.50;99.90
51091;DHT22;37136;43.614;3.908;2022-08-01T11:26:13;35.80;99.90
51091;DHT22;37136;43.614;3.908;2022-08-01T11:28:40;35.70;99.90
51091;DHT22;37136;43.614;3.908;2022-08-01T11:41:28;35.80;99.90
51091;DHT22;37136;43.614;3.908;2022-08-01T11:47:04;35.60;99.90
51091;DHT22;37136;43.614;3.908;2022-08-01T11:52:16;35.80;99.90
51091;DHT22;37136;43.614;3.908;2022-08-01T11:55:08;36.10;99.90
51091;DHT22;37136;43.614;3.908;2022-08-01T11:57:34;36.10;99.90
51091;DHT22;37136;43.614;3.908;2022-08-01T12:00:09;36.10;99.90
51091;DHT22;37136;43.614;3.908;2022-08-01T12:02:36;36.20;99.90
51091;DHT22;37136;43.614;3.908;2022-08-01T12:05:10;36.30;99.90
51091;DHT22;37136;43.614;3.908;2022-08-01T12:07:38;36.60;99.90
51091;DHT22;37136;43.614;3.908;2022-08-01T12:10:12;36.50;99.90
51091;DHT22;37136;43.614;3.908;2022-08-01T12:12:49;36.30;99.90
51091;DHT22;37136;43.614;3.908;2022-08-01T12:15:16;36.20;99.90
51091;DHT22;37136;43.614;3.908;2022-08-01T12:17:49;36.30;99.90
51091;DHT22;37136;43.614;3.908;2022-08-01T12:20:19;35.90;99.90
51091;DHT22;37136;43.614;3.908;2022-08-01T12:22:46;36.10;99.90
51091;DHT22;37136;43.614;3.908;2022-08-01T12:25:14;35.90;99.90
51091;DHT22;37136;43.614;3.908;2022-08-01T12:27:42;36.10;99.90
51091;DHT22;37136;43.614;3.908;2022-08-01T12:30:10;36.00;99.90
51091;DHT22;37136;43.614;3.908;2022-08-01T12:32:38;36.10;99.90
51091;DHT22;37136;43.614;3.908;2022-08-01T12:35:09;36.20;99.90
51091;DHT22;37136;43.614;3.908;2022-08-01T12:40:29;35.80;99.90
51091;DHT22;37136;43.614;3.908;2022-08-01T12:43:07;36.30;99.90
51091;DHT22;37136;43.614;3.908;2022-08-01T12:47:59;36.40;99.90
51091;DHT22;37136;43.614;3.908;2022-08-01T12:50:29;36.20;99.90
51091;DHT22;37136;43.614;3.908;2022-08-01T12:52:56;36.30;99.90
51091;DHT22;37136;43.614;3.908;2022-08-01T12:55:26;36.20;99.90
51091;DHT22;37136;43.614;3.908;2022-08-01T12:58:13;36.30;99.90
51091;DHT22;37136;43.614;3.908;2022-08-01T13:00:40;36.50;99.90
51091;DHT22;37136;43.614;3.908;2022-08-01T13:03:12;36.30;99.90
51091;DHT22;37136;43.614;3.908;2022-08-01T13:05:58;36.10;99.90
51091;DHT22;37136;43.614;3.908;2022-08-01T13:08:33;36.20;99.90
51091;DHT22;37136;43.614;3.908;2022-08-01T13:11:11;36.10;99.90
51091;DHT22;37136;43.614;3.908;2022-08-01T13:13:43;36.20;99.90
51091;DHT22;37136;43.614;3.908;2022-08-01T13:16:10;36.30;99.90
51091;DHT22;37136;43.614;3.908;2022-08-01T13:18:37;36.20;99.90
51091;DHT22;37136;43.614;3.908;2022-08-01T13:21:22;36.20;99.90
51091;DHT22;37136;43.614;3.908;2022-08-01T13:24:07;36.30;99.90
51091;DHT22;37136;43.614;3.908;2022-08-01T13:29:21;36.30;99.90
51091;DHT22;37136;43.614;3.908;2022-08-01T13:31:48;36.40;99.90
51091;DHT22;37136;43.614;3.908;2022-08-01T13:34:15;36.30;99.90
51091;DHT22;37136;43.614;3.908;2022-08-01T13:36:41;36.20;99.90
51091;DHT22;37136;43.614;3.908;2022-08-01T13:39:07;36.50;99.90
51091;DHT22;37136;43.614;3.908;2022-08-01T13:41:51;36.80;99.90
51091;DHT22;37136;43.614;3.908;2022-08-01T13:44:17;36.70;99.90
51091;DHT22;37136;43.614;3.908;2022-08-01T13:46:44;37.00;99.90
51091;DHT22;37136;43.614;3.908;2022-08-01T13:49:11;37.00;99.90
51091;DHT22;37136;43.614;3.908;2022-08-01T13:51:37;36.80;99.90
51091;DHT22;37136;43.614;3.908;2022-08-01T13:54:05;37.10;99.90
51091;DHT22;37136;43.614;3.908;2022-08-01T13:56:31;37.00;99.90
51091;DHT22;37136;43.614;3.908;2022-08-01T13:58:58;36.90;99.90
51091;DHT22;37136;43.614;3.908;2022-08-01T14:01:24;36.80;99.90
51091;DHT22;37136;43.614;3.908;2022-08-01T14:03:50;36.80;99.90
51091;DHT22;37136;43.614;3.908;2022-08-01T14:06:19;36.60;99.90
51091;DHT22;37136;43.614;3.908;2022-08-01T14:08:48;36.70;99.90
51091;DHT22;37136;43.614;3.908;2022-08-01T14:11:14;36.60;99.90
51091;DHT22;37136;43.614;3.908;2022-08-01T14:13:40;36.50;99.90
51091;DHT22;37136;43.614;3.908;2022-08-01T14:16:06;36.50;99.90
51091;DHT22;37136;43.614;3.908;2022-08-01T14:18:32;36.40;99.90
51091;DHT22;37136;43.614;3.908;2022-08-01T14:20:58;36.30;99.90
51091;DHT22;37136;43.614;3.908;2022-08-01T14:23:25;36.30;99.90
51091;DHT22;37136;43.614;3.908;2022-08-01T14:25:51;36.60;99.90
51091;DHT22;37136;43.614;3.908;2022-08-01T14:28:17;36.40;99.90
51091;DHT22;37136;43.614;3.908;2022-08-01T14:30:43;36.50;99.90
51091;DHT22;37136;43.614;3.908;2022-08-01T14:33:12;36.40;99.90
51091;DHT22;37136;43.614;3.908;2022-08-01T14:35:40;36.30;99.90
51091;DHT22;37136;43.614;3.908;2022-08-01T14:38:06;36.20;99.90
51091;DHT22;37136;43.614;3.908;2022-08-01T14:40:33;36.40;99.90
51091;DHT22;37136;43.614;3.908;2022-08-01T14:42:59;36.10;99.90
51091;DHT22;37136;43.614;3.908;2022-08-01T14:45:27;36.40;99.90
51091;DHT22;37136;43.614;3.908;2022-08-01T14:47:53;36.60;99.90
51091;DHT22;37136;43.614;3.908;2022-08-01T14:50:19;36.50;99.90
51091;DHT22;37136;43.614;3.908;2022-08-01T14:52:45;36.60;99.90
51091;DHT22;37136;43.614;3.908;2022-08-01T14:55:11;36.60;99.90
51091;DHT22;37136;43.614;3.908;2022-08-01T14:57:39;36.80;99.90
51091;DHT22;37136;43.614;3.908;2022-08-01T15:00:07;36.80;99.90
51091;DHT22;37136;43.614;3.908;2022-08-01T15:02:39;36.90;99.90
51091;DHT22;37136;43.614;3.908;2022-08-01T15:05:06;36.80;99.90
51091;DHT22;37136;43.614;3.908;2022-08-01T15:07:32;36.60;99.90
51091;DHT22;37136;43.614;3.908;2022-08-01T15:09:58;36.80;99.90
51091;DHT22;37136;43.614;3.908;2022-08-01T15:12:23;38.30;99.90
51091;DHT22;37136;43.614;3.908;2022-08-01T15:14:50;41.50;99.90
51091;DHT22;37136;43.614;3.908;2022-08-01T15:17:21;43.60;99.90
51091;DHT22;37136;43.614;3.908;2022-08-01T15:19:50;45.00;99.90
51091;DHT22;37136;43.614;3.908;2022-08-01T15:22:17;46.10;99.90
51091;DHT22;37136;43.614;3.908;2022-08-01T15:24:43;46.60;99.90
51091;DHT22;37136;43.614;3.908;2022-08-01T15:27:10;45.30;99.90
51091;DHT22;37136;43.614;3.908;2022-08-01T15:29:36;45.10;99.90
51091;DHT22;37136;43.614;3.908;2022-08-01T15:32:03;46.00;99.90
51091;DHT22;37136;43.614;3.908;2022-08-01T15:34:30;47.00;99.90
51091;DHT22;37136;43.614;3.908;2022-08-01T15:36:57;48.80;99.90
51091;DHT22;37136;43.614;3.908;2022-08-01T15:39:23;47.60;99.90
51091;DHT22;37136;43.614;3.908;2022-08-01T15:41:49;47.50;99.90
51091;DHT22;37136;43.614;3.908;2022-08-01T15:44:15;47.30;99.90
51091;DHT22;37136;43.614;3.908;2022-08-01T15:46:48;46.90;99.90
51091;DHT22;37136;43.614;3.908;2022-08-01T15:49:15;47.60;99.90
51091;DHT22;37136;43.614;3.908;2022-08-01T15:51:41;47.70;99.90
51091;DHT22;37136;43.614;3.908;2022-08-01T15:54:07;47.40;99.90
51091;DHT22;37136;43.614;3.908;2022-08-01T15:56:35;46.60;99.90
51091;DHT22;37136;43.614;3.908;2022-08-01T15:59:01;46.30;99.90
51091;DHT22;37136;43.614;3.908;2022-08-01T16:01:27;45.70;99.90
51091;DHT22;37136;43.614;3.908;2022-08-01T16:03:55;45.70;99.90
51091;DHT22;37136;43.614;3.908;2022-08-01T16:06:22;45.40;99.90
51091;DHT22;37136;43.614;3.908;2022-08-01T16:08:48;46.60;99.90
51091;DHT22;37136;43.614;3.908;2022-08-01T16:11:14;47.00;99.90
51091;DHT22;37136;43.614;3.908;2022-08-01T16:13:39;47.60;99.90
51091;DHT22;37136;43.614;3.908;2022-08-01T16:16:09;46.50;99.90
51091;DHT22;37136;43.614;3.908;2022-08-01T16:18:35;46.50;99.90